sensor_id;sensor_type;location;lat;lon;timestamp;temperature;humidity
13470;DHT22;6807;48.682;9.032;2023-05-07T01:13:16;11.20;99.90
13470;DHT22;6807;48.682;9.032;2023-05-07T01:33:02;11.20;1.00
13470;DHT22;6807;48.682;9.032;2023-05-07T01:35:34;11.10;1.00
13470;DHT22;6807;48.682;9.032;2023-05-07T01:43:02;11.10;1.00
13470;DHT22;6807;48.682;9.032;2023-05-07T07:00:46;19.10;1.00
13470;DHT22;6807;48.682;9.032;2023-05-07T07:03:13;19.50;1.00
13470;DHT22;6807;48.682;9.032;2023-05-07T07:05:40;19.50;1.00
13470;DHT22;6807;48.682;9.032;2023-05-07T07:08:10;19.80;1.00
13470;DHT22;6807;48.682;9.032;2023-05-07T07:10:37;20.10;1.00
13470;DHT22;6807;48.682;9.032;2023-05-07T07:13:04;20.30;1.00
13470;DHT22;6807;48.682;9.032;2023-05-07T07:15:31;20.70;1.00
13470;DHT22;6807;48.682;9.032;2023-05-07T07:17:58;21.10;1.00
13470;DHT22;6807;48.682;9.032;2023-05-07T07:20:25;21.10;1.00
13470;DHT22;6807;48.682;9.032;2023-05-07T07:22:53;20.90;1.00
13470;DHT22;6807;48.682;9.032;2023-05-07T07:25:22;21.20;1.00
13470;DHT22;6807;48.682;9.032;2023-05-07T07:27:49;21.80;1.00
13470;DHT22;6807;48.682;9.032;2023-05-07T07:30:16;21.10;1.00
13470;DHT22;6807;48.682;9.032;2023-05-07T07:32:43;20.50;1.00
13470;DHT22;6807;48.682;9.032;2023-05-07T07:35:10;20.20;1.00
13470;DHT22;6807;48.682;9.032;2023-05-07T07:37:37;20.60;1.00
13470;DHT22;6807;48.682;9.032;2023-05-07T07:40:05;21.30;1.00
13470;DHT22;6807;48.682;9.032;2023-05-07T07:42:34;21.70;1.00
13470;DHT22;6807;48.682;9.032;2023-05-07T07:45:01;21.50;1.00
13470;DHT22;6807;48.682;9.032;2023-05-07T07:47:29;21.30;1.00
13470;DHT22;6807;48.682;9.032;2023-05-07T07:49:56;20.90;1.00
13470;DHT22;6807;48.682;9.032;2023-05-07T07:52:23;21.40;1.00
13470;DHT22;6807;48.682;9.032;2023-05-07T07:54:50;21.30;1.00
13470;DHT22;6807;48.682;9.032;2023-05-07T07:57:17;20.70;1.00
13470;DHT22;6807;48.682;9.032;2023-05-07T07:59:46;21.20;1.00
13470;DHT22;6807;48.682;9.032;2023-05-07T08:02:13;21.80;1.00
13470;DHT22;6807;48.682;9.032;2023-05-07T08:04:40;22.40;1.00
13470;DHT22;6807;48.682;9.032;2023-05-07T08:07:09;23.20;1.00
13470;DHT22;6807;48.682;9.032;2023-05-07T08:09:36;23.60;1.00
13470;DHT22;6807;48.682;9.032;2023-05-07T08:12:04;24.70;1.00
13470;DHT22;6807;48.682;9.032;2023-05-07T08:14:31;24.20;1.00
13470;DHT22;6807;48.682;9.032;2023-05-07T08:17:00;24.30;1.00
13470;DHT22;6807;48.682;9.032;2023-05-07T08:19:35;24.50;1.00
13470;DHT22;6807;48.682;9.032;2023-05-07T08:22:03;24.90;1.00
13470;DHT22;6807;48.682;9.032;2023-05-07T08:24:30;25.10;1.00
13470;DHT22;6807;48.682;9.032;2023-05-07T08:26:57;24.50;1.00
13470;DHT22;6807;48.682;9.032;2023-05-07T08:29:24;24.10;1.00
13470;DHT22;6807;48.682;9.032;2023-05-07T08:31:52;23.50;1.00
13470;DHT22;6807;48.682;9.032;2023-05-07T08:34:21;23.30;1.00
13470;DHT22;6807;48.682;9.032;2023-05-07T08:42:08;25.30;1.00
13470;DHT22;6807;48.682;9.032;2023-05-07T08:44:38;25.50;1.00
13470;DHT22;6807;48.682;9.032;2023-05-07T08:47:07;25.20;1.00
13470;DHT22;6807;48.682;9.032;2023-05-07T08:49:36;23.70;1.00
13470;DHT22;6807;48.682;9.032;2023-05-07T08:54:32;25.60;1.00
13470;DHT22;6807;48.682;9.032;2023-05-07T08:59:28;25.60;1.00
13470;DHT22;6807;48.682;9.032;2023-05-07T09:01:55;25.90;1.00
13470;DHT22;6807;48.682;9.032;2023-05-07T09:04:22;25.80;1.00
13470;DHT22;6807;48.682;9.032;2023-05-07T09:06:51;26.50;1.00
13470;DHT22;6807;48.682;9.032;2023-05-07T09:09:18;26.10;1.00
13470;DHT22;6807;48.682;9.032;2023-05-07T09:11:48;25.30;1.00
13470;DHT22;6807;48.682;9.032;2023-05-07T09:14:16;25.10;1.00
13470;DHT22;6807;48.682;9.032;2023-05-07T09:16:43;25.30;1.00
13470;DHT22;6807;48.682;9.032;2023-05-07T09:19:10;26.20;1.00
13470;DHT22;6807;48.682;9.032;2023-05-07T09:21:37;26.50;1.00
13470;DHT22;6807;48.682;9.032;2023-05-07T09:24:07;25.60;1.00
13470;DHT22;6807;48.682;9.032;2023-05-07T09:26:34;26.80;1.00
13470;DHT22;6807;48.682;9.032;2023-05-07T09:29:03;26.90;1.00
13470;DHT22;6807;48.682;9.032;2023-05-07T09:36:27;26.80;99.90
13470;DHT22;6807;48.682;9.032;2023-05-07T09:38:55;26.80;1.00
13470;DHT22;6807;48.682;9.032;2023-05-07T09:41:23;26.20;1.00
13470;DHT22;6807;48.682;9.032;2023-05-07T09:43:54;25.90;1.00
13470;DHT22;6807;48.682;9.032;2023-05-07T09:46:28;26.40;1.00
13470;DHT22;6807;48.682;9.032;2023-05-07T09:48:57;26.70;1.00
13470;DHT22;6807;48.682;9.032;2023-05-07T09:51:29;26.40;1.00
13470;DHT22;6807;48.682;9.032;2023-05-07T09:53:57;26.80;1.00
13470;DHT22;6807;48.682;9.032;2023-05-07T09:56:27;26.80;1.00
13470;DHT22;6807;48.682;9.032;2023-05-07T09:58:57;27.30;1.00
13470;DHT22;6807;48.682;9.032;2023-05-07T10:01:26;28.00;1.00
13470;DHT22;6807;48.682;9.032;2023-05-07T10:03:53;27.20;1.00
13470;DHT22;6807;48.682;9.032;2023-05-07T10:06:24;28.10;1.00
13470;DHT22;6807;48.682;9.032;2023-05-07T10:08:52;27.20;1.00
13470;DHT22;6807;48.682;9.032;2023-05-07T10:11:19;27.50;1.00
13470;DHT22;6807;48.682;9.032;2023-05-07T10:13:50;28.10;1.00
13470;DHT22;6807;48.682;9.032;2023-05-07T10:16:19;27.50;1.00
13470;DHT22;6807;48.682;9.032;2023-05-07T10:18:47;27.30;1.00
13470;DHT22;6807;48.682;9.032;2023-05-07T10:21:16;28.20;1.00
13470;DHT22;6807;48.682;9.032;2023-05-07T10:23:46;28.90;1.00
13470;DHT22;6807;48.682;9.032;2023-05-07T10:26:16;29.10;1.00
13470;DHT22;6807;48.682;9.032;2023-05-07T10:28:48;28.20;99.90
13470;DHT22;6807;48.682;9.032;2023-05-07T10:31:42;28.90;1.00
13470;DHT22;6807;48.682;9.032;2023-05-07T10:34:18;29.00;1.00
13470;DHT22;6807;48.682;9.032;2023-05-07T10:36:46;28.30;1.00
13470;DHT22;6807;48.682;9.032;2023-05-07T10:39:14;29.00;1.00
13470;DHT22;6807;48.682;9.032;2023-05-07T10:41:41;28.50;1.00
13470;DHT22;6807;48.682;9.032;2023-05-07T10:44:09;28.80;1.00
13470;DHT22;6807;48.682;9.032;2023-05-07T10:46:37;29.10;1.00
13470;DHT22;6807;48.682;9.032;2023-05-07T10:49:11;27.60;1.00
13470;DHT22;6807;48.682;9.032;2023-05-07T10:51:38;28.10;1.00
13470;DHT22;6807;48.682;9.032;2023-05-07T10:54:19;28.00;1.00
13470;DHT22;6807;48.682;9.032;2023-05-07T10:56:46;28.50;1.00
13470;DHT22;6807;48.682;9.032;2023-05-07T10:59:36;29.10;1.00
13470;DHT22;6807;48.682;9.032;2023-05-07T11:02:10;28.60;1.00
13470;DHT22;6807;48.682;9.032;2023-05-07T11:04:39;29.00;1.00
13470;DHT22;6807;48.682;9.032;2023-05-07T11:07:31;29.10;1.00
13470;DHT22;6807;48.682;9.032;2023-05-07T11:10:03;28.40;1.00
13470;DHT22;6807;48.682;9.032;2023-05-07T11:12:53;28.00;1.00
13470;DHT22;6807;48.682;9.032;2023-05-07T11:15:40;28.00;1.00
13470;DHT22;6807;48.682;9.032;2023-05-07T11:18:14;27.40;1.00
13470;DHT22;6807;48.682;9.032;2023-05-07T11:20:55;26.70;1.00
13470;DHT22;6807;48.682;9.032;2023-05-07T11:26:44;25.90;1.00
13470;DHT22;6807;48.682;9.032;2023-05-07T11:29:13;25.60;1.00
13470;DHT22;6807;48.682;9.032;2023-05-07T11:31:40;24.60;1.00
13470;DHT22;6807;48.682;9.032;2023-05-07T11:34:09;24.40;1.00
13470;DHT22;6807;48.682;9.032;2023-05-07T11:36:43;24.20;1.00
13470;DHT22;6807;48.682;9.032;2023-05-07T11:39:26;23.70;1.00
13470;DHT22;6807;48.682;9.032;2023-05-07T11:41:54;23.30;1.00
13470;DHT22;6807;48.682;9.032;2023-05-07T11:44:21;23.40;1.00
13470;DHT22;6807;48.682;9.032;2023-05-07T11:46:49;23.20;1.00
13470;DHT22;6807;48.682;9.032;2023-05-07T11:49:19;23.10;1.00
13470;DHT22;6807;48.682;9.032;2023-05-07T11:51:46;23.00;1.00
13470;DHT22;6807;48.682;9.032;2023-05-07T11:54:16;22.70;1.00
13470;DHT22;6807;48.682;9.032;2023-05-07T11:56:44;22.70;1.00
13470;DHT22;6807;48.682;9.032;2023-05-07T11:59:17;22.40;1.00
13470;DHT22;6807;48.682;9.032;2023-05-07T12:01:46;22.10;1.00
13470;DHT22;6807;48.682;9.032;2023-05-07T12:04:13;21.40;1.00
13470;DHT22;6807;48.682;9.032;2023-05-07T12:39:08;16.90;1.00
13470;DHT22;6807;48.682;9.032;2023-05-07T12:41:52;16.40;1.00
13470;DHT22;6807;48.682;9.032;2023-05-07T12:44:22;16.40;1.00
13470;DHT22;6807;48.682;9.032;2023-05-07T12:46:49;16.20;1.00
13470;DHT22;6807;48.682;9.032;2023-05-07T12:49:17;15.80;99.90
13470;DHT22;6807;48.682;9.032;2023-05-07T12:51:44;15.10;1.00
13470;DHT22;6807;48.682;9.032;2023-05-07T12:54:16;14.50;99.90
13470;DHT22;6807;48.682;9.032;2023-05-07T12:57:00;14.30;99.90
13470;DHT22;6807;48.682;9.032;2023-05-07T12:59:31;14.20;36.40
13470;DHT22;6807;48.682;9.032;2023-05-07T13:01:59;14.20;30.00
13470;DHT22;6807;48.682;9.032;2023-05-07T13:04:26;14.20;99.90
13470;DHT22;6807;48.682;9.032;2023-05-07T13:07:04;14.20;99.90
13470;DHT22;6807;48.682;9.032;2023-05-07T13:09:33;14.30;99.90
13470;DHT22;6807;48.682;9.032;2023-05-07T13:12:03;14.20;99.90
13470;DHT22;6807;48.682;9.032;2023-05-07T13:14:32;14.00;99.90
13470;DHT22;6807;48.682;9.032;2023-05-07T13:16:59;13.90;99.90
13470;DHT22;6807;48.682;9.032;2023-05-07T13:19:26;14.00;1.00
13470;DHT22;6807;48.682;9.032;2023-05-07T13:21:53;14.20;1.00
13470;DHT22;6807;48.682;9.032;2023-05-07T13:24:20;14.20;1.00
13470;DHT22;6807;48.682;9.032;2023-05-07T13:26:49;14.20;1.00
13470;DHT22;6807;48.682;9.032;2023-05-07T13:29:16;14.10;1.00
13470;DHT22;6807;48.682;9.032;2023-05-07T13:31:43;14.00;1.00
13470;DHT22;6807;48.682;9.032;2023-05-07T13:34:10;14.20;1.00
13470;DHT22;6807;48.682;9.032;2023-05-07T13:36:37;14.20;1.00
13470;DHT22;6807;48.682;9.032;2023-05-07T13:39:05;14.30;99.90
13470;DHT22;6807;48.682;9.032;2023-05-07T13:41:32;14.30;99.90
13470;DHT22;6807;48.682;9.032;2023-05-07T13:44:01;14.30;99.80
13470;DHT22;6807;48.682;9.032;2023-05-07T13:46:28;14.30;99.90
13470;DHT22;6807;48.682;9.032;2023-05-07T13:48:55;14.40;1.00
13470;DHT22;6807;48.682;9.032;2023-05-07T13:51:23;14.40;1.00
13470;DHT22;6807;48.682;9.032;2023-05-07T13:53:50;14.30;99.90
13470;DHT22;6807;48.682;9.032;2023-05-07T13:56:18;14.30;99.90
13470;DHT22;6807;48.682;9.032;2023-05-07T13:58:45;14.20;99.90
13470;DHT22;6807;48.682;9.032;2023-05-07T14:01:14;14.00;99.90
13470;DHT22;6807;48.682;9.032;2023-05-07T14:03:41;14.00;99.90
13470;DHT22;6807;48.682;9.032;2023-05-07T14:06:08;14.00;1.00
13470;DHT22;6807;48.682;9.032;2023-05-07T14:08:35;14.00;1.00
13470;DHT22;6807;48.682;9.032;2023-05-07T14:11:02;14.10;1.00
13470;DHT22;6807;48.682;9.032;2023-05-07T14:13:29;14.20;1.00
13470;DHT22;6807;48.682;9.032;2023-05-07T14:15:56;14.10;99.90
13470;DHT22;6807;48.682;9.032;2023-05-07T14:18:25;14.10;99.90
13470;DHT22;6807;48.682;9.032;2023-05-07T14:20:54;14.10;99.90
13470;DHT22;6807;48.682;9.032;2023-05-07T14:23:21;14.00;99.90
13470;DHT22;6807;48.682;9.032;2023-05-07T14:25:52;14.10;99.90
13470;DHT22;6807;48.682;9.032;2023-05-07T14:28:19;14.00;99.90
13470;DHT22;6807;48.682;9.032;2023-05-07T14:30:47;14.10;99.90
13470;DHT22;6807;48.682;9.032;2023-05-07T14:33:14;14.00;99.90
13470;DHT22;6807;48.682;9.032;2023-05-07T14:35:43;14.00;99.90
13470;DHT22;6807;48.682;9.032;2023-05-07T14:38:15;14.00;99.90
13470;DHT22;6807;48.682;9.032;2023-05-07T14:40:42;14.00;99.90
13470;DHT22;6807;48.682;9.032;2023-05-07T14:43:09;14.10;1.00
13470;DHT22;6807;48.682;9.032;2023-05-07T14:45:36;14.10;99.90
13470;DHT22;6807;48.682;9.032;2023-05-07T14:48:04;14.20;99.90
13470;DHT22;6807;48.682;9.032;2023-05-07T14:50:31;14.20;99.90
13470;DHT22;6807;48.682;9.032;2023-05-07T14:53:00;14.30;99.90
13470;DHT22;6807;48.682;9.032;2023-05-07T14:55:27;14.30;99.90
13470;DHT22;6807;48.682;9.032;2023-05-07T14:57:55;14.50;1.00
13470;DHT22;6807;48.682;9.032;2023-05-07T15:00:23;14.50;99.90
13470;DHT22;6807;48.682;9.032;2023-05-07T15:02:50;14.50;99.90
13470;DHT22;6807;48.682;9.032;2023-05-07T15:05:17;14.50;99.90
13470;DHT22;6807;48.682;9.032;2023-05-07T15:07:45;14.80;1.00
13470;DHT22;6807;48.682;9.032;2023-05-07T15:10:14;14.90;1.00
13470;DHT22;6807;48.682;9.032;2023-05-07T15:12:41;14.90;1.00
13470;DHT22;6807;48.682;9.032;2023-05-07T15:15:09;15.00;1.00
13470;DHT22;6807;48.682;9.032;2023-05-07T15:17:37;15.00;1.00
13470;DHT22;6807;48.682;9.032;2023-05-07T15:20:06;15.00;1.00
13470;DHT22;6807;48.682;9.032;2023-05-07T15:22:35;15.30;1.00
13470;DHT22;6807;48.682;9.032;2023-05-07T15:25:03;15.30;1.00
13470;DHT22;6807;48.682;9.032;2023-05-07T15:27:32;15.30;99.90
13470;DHT22;6807;48.682;9.032;2023-05-07T15:29:59;15.20;99.90
13470;DHT22;6807;48.682;9.032;2023-05-07T15:32:26;15.30;99.90
13470;DHT22;6807;48.682;9.032;2023-05-07T15:34:53;15.40;99.90
13470;DHT22;6807;48.682;9.032;2023-05-07T15:37:20;15.50;99.90
13470;DHT22;6807;48.682;9.032;2023-05-07T15:39:47;15.50;99.90
13470;DHT22;6807;48.682;9.032;2023-05-07T15:42:15;15.60;99.90
13470;DHT22;6807;48.682;9.032;2023-05-07T15:44:43;15.70;99.90
13470;DHT22;6807;48.682;9.032;2023-05-07T15:47:10;15.80;99.90
13470;DHT22;6807;48.682;9.032;2023-05-07T15:49:39;15.90;99.90
13470;DHT22;6807;48.682;9.032;2023-05-07T15:52:06;16.00;21.70
13470;DHT22;6807;48.682;9.032;2023-05-07T15:54:35;16.20;78.90
13470;DHT22;6807;48.682;9.032;2023-05-07T15:57:03;16.20;1.00
13470;DHT22;6807;48.682;9.032;2023-05-07T15:59:31;16.20;1.00
13470;DHT22;6807;48.682;9.032;2023-05-07T16:02:00;16.20;1.00
13470;DHT22;6807;48.682;9.032;2023-05-07T16:04:27;16.20;1.00
13470;DHT22;6807;48.682;9.032;2023-05-07T16:06:54;16.30;1.00
13470;DHT22;6807;48.682;9.032;2023-05-07T16:09:21;16.30;36.40
13470;DHT22;6807;48.682;9.032;2023-05-07T16:11:50;16.30;1.00
13470;DHT22;6807;48.682;9.032;2023-05-07T16:14:17;16.40;1.00
13470;DHT22;6807;48.682;9.032;2023-05-07T16:16:44;16.30;99.90
13470;DHT22;6807;48.682;9.032;2023-05-07T16:19:12;16.20;1.00
13470;DHT22;6807;48.682;9.032;2023-05-07T16:21:40;16.20;1.00
13470;DHT22;6807;48.682;9.032;2023-05-07T16:24:07;15.90;1.00
13470;DHT22;6807;48.682;9.032;2023-05-07T16:26:35;15.80;1.00
13470;DHT22;6807;48.682;9.032;2023-05-07T16:29:03;15.90;1.00
13470;DHT22;6807;48.682;9.032;2023-05-07T16:31:31;15.90;1.00
13470;DHT22;6807;48.682;9.032;2023-05-07T16:33:58;16.00;99.90
13470;DHT22;6807;48.682;9.032;2023-05-07T16:36:28;16.00;99.90
13470;DHT22;6807;48.682;9.032;2023-05-07T16:38:55;16.00;99.90
13470;DHT22;6807;48.682;9.032;2023-05-07T16:41:22;16.00;91.60
13470;DHT22;6807;48.682;9.032;2023-05-07T16:43:49;16.00;1.00
13470;DHT22;6807;48.682;9.032;2023-05-07T16:46:16;16.00;1.00
13470;DHT22;6807;48.682;9.032;2023-05-07T16:48:44;16.00;99.90
13470;DHT22;6807;48.682;9.032;2023-05-07T16:51:11;16.10;99.90
13470;DHT22;6807;48.682;9.032;2023-05-07T16:53:39;16.00;38.80
13470;DHT22;6807;48.682;9.032;2023-05-07T16:56:06;16.10;93.10
13470;DHT22;6807;48.682;9.032;2023-05-07T16:58:35;16.00;92.90
13470;DHT22;6807;48.682;9.032;2023-05-07T17:01:02;15.80;78.30
13470;DHT22;6807;48.682;9.032;2023-05-07T17:03:30;15.80;99.90
13470;DHT22;6807;48.682;9.032;2023-05-07T17:05:57;15.80;99.90
13470;DHT22;6807;48.682;9.032;2023-05-07T17:08:26;15.70;99.90
13470;DHT22;6807;48.682;9.032;2023-05-07T17:10:55;15.70;99.90
13470;DHT22;6807;48.682;9.032;2023-05-07T17:13:24;15.60;99.90
13470;DHT22;6807;48.682;9.032;2023-05-07T17:15:52;15.60;99.90
13470;DHT22;6807;48.682;9.032;2023-05-07T17:18:19;15.50;1.00
13470;DHT22;6807;48.682;9.032;2023-05-07T17:20:46;15.30;1.00
13470;DHT22;6807;48.682;9.032;2023-05-07T17:23:14;15.30;1.00
13470;DHT22;6807;48.682;9.032;2023-05-07T17:25:41;15.30;1.00
13470;DHT22;6807;48.682;9.032;2023-05-07T17:28:11;15.40;1.00
13470;DHT22;6807;48.682;9.032;2023-05-07T17:30:38;15.20;99.90
13470;DHT22;6807;48.682;9.032;2023-05-07T17:33:06;15.30;1.00
13470;DHT22;6807;48.682;9.032;2023-05-07T17:35:39;15.30;1.00
13470;DHT22;6807;48.682;9.032;2023-05-07T17:38:06;15.30;1.00
13470;DHT22;6807;48.682;9.032;2023-05-07T17:40:33;15.30;1.00
13470;DHT22;6807;48.682;9.032;2023-05-07T17:43:00;15.20;1.00
13470;DHT22;6807;48.682;9.032;2023-05-07T17:45:31;15.20;1.00
13470;DHT22;6807;48.682;9.032;2023-05-07T17:47:58;15.10;1.00
13470;DHT22;6807;48.682;9.032;2023-05-07T17:50:26;15.10;1.00
13470;DHT22;6807;48.682;9.032;2023-05-07T17:52:53;15.10;1.00
13470;DHT22;6807;48.682;9.032;2023-05-07T17:55:20;15.10;1.00
13470;DHT22;6807;48.682;9.032;2023-05-07T17:57:47;15.10;1.00
13470;DHT22;6807;48.682;9.032;2023-05-07T18:00:20;15.00;99.90
13470;DHT22;6807;48.682;9.032;2023-05-07T18:02:50;15.00;1.00
13470;DHT22;6807;48.682;9.032;2023-05-07T18:05:17;15.00;1.00
13470;DHT22;6807;48.682;9.032;2023-05-07T18:07:44;14.90;1.00
13470;DHT22;6807;48.682;9.032;2023-05-07T18:10:12;14.90;1.00
13470;DHT22;6807;48.682;9.032;2023-05-07T18:12:39;14.90;1.00
13470;DHT22;6807;48.682;9.032;2023-05-07T18:15:07;14.90;99.90
13470;DHT22;6807;48.682;9.032;2023-05-07T18:17:35;14.80;1.00
13470;DHT22;6807;48.682;9.032;2023-05-07T18:20:04;14.90;1.00
13470;DHT22;6807;48.682;9.032;2023-05-07T18:22:33;14.80;1.00
13470;DHT22;6807;48.682;9.032;2023-05-07T18:25:00;14.70;1.00
13470;DHT22;6807;48.682;9.032;2023-05-07T18:27:28;14.70;1.00
13470;DHT22;6807;48.682;9.032;2023-05-07T18:29:55;14.70;1.00
13470;DHT22;6807;48.682;9.032;2023-05-07T18:32:22;14.60;1.00
13470;DHT22;6807;48.682;9.032;2023-05-07T18:34:50;14.60;20.30
13470;DHT22;6807;48.682;9.032;2023-05-07T18:37:18;14.50;55.30
13470;DHT22;6807;48.682;9.032;2023-05-07T18:39:45;14.50;28.60
13470;DHT22;6807;48.682;9.032;2023-05-07T18:42:12;14.40;87.90
13470;DHT22;6807;48.682;9.032;2023-05-07T18:44:40;14.40;83.70
13470;DHT22;6807;48.682;9.032;2023-05-07T18:47:07;14.50;99.90
13470;DHT22;6807;48.682;9.032;2023-05-07T18:49:36;14.40;95.70
13470;DHT22;6807;48.682;9.032;2023-05-07T18:52:03;14.40;97.00
13470;DHT22;6807;48.682;9.032;2023-05-07T18:54:32;14.30;99.90
13470;DHT22;6807;48.682;9.032;2023-05-07T18:56:59;14.30;99.90
13470;DHT22;6807;48.682;9.032;2023-05-07T18:59:26;14.20;99.90
13470;DHT22;6807;48.682;9.032;2023-05-07T19:01:54;14.10;5.80
13470;DHT22;6807;48.682;9.032;2023-05-07T19:04:22;14.10;95.30
13470;DHT22;6807;48.682;9.032;2023-05-07T19:06:49;14.10;84.10
13470;DHT22;6807;48.682;9.032;2023-05-07T19:09:16;14.10;99.90
13470;DHT22;6807;48.682;9.032;2023-05-07T19:11:45;14.10;99.90
13470;DHT22;6807;48.682;9.032;2023-05-07T19:14:12;14.10;99.90
13470;DHT22;6807;48.682;9.032;2023-05-07T19:16:39;14.10;99.90
13470;DHT22;6807;48.682;9.032;2023-05-07T19:19:06;14.10;99.90
13470;DHT22;6807;48.682;9.032;2023-05-07T19:21:33;14.00;99.90
13470;DHT22;6807;48.682;9.032;2023-05-07T19:24:00;14.00;99.90
13470;DHT22;6807;48.682;9.032;2023-05-07T19:26:27;13.90;99.90
13470;DHT22;6807;48.682;9.032;2023-05-07T19:28:56;13.90;99.90
13470;DHT22;6807;48.682;9.032;2023-05-07T19:31:24;13.90;99.90
13470;DHT22;6807;48.682;9.032;2023-05-07T19:33:52;13.90;99.90
13470;DHT22;6807;48.682;9.032;2023-05-07T19:36:20;13.80;99.90
13470;DHT22;6807;48.682;9.032;2023-05-07T19:38:47;13.80;99.90
13470;DHT22;6807;48.682;9.032;2023-05-07T19:41:17;13.90;99.90
13470;DHT22;6807;48.682;9.032;2023-05-07T19:43:44;13.90;99.90
13470;DHT22;6807;48.682;9.032;2023-05-07T19:46:13;13.90;99.90
13470;DHT22;6807;48.682;9.032;2023-05-07T19:48:41;14.00;99.90
13470;DHT22;6807;48.682;9.032;2023-05-07T19:51:09;14.00;99.90
13470;DHT22;6807;48.682;9.032;2023-05-07T19:53:40;14.00;99.90
13470;DHT22;6807;48.682;9.032;2023-05-07T19:56:15;14.00;99.90
13470;DHT22;6807;48.682;9.032;2023-05-07T19:58:42;14.00;99.90
13470;DHT22;6807;48.682;9.032;2023-05-07T20:01:10;14.00;99.90
13470;DHT22;6807;48.682;9.032;2023-05-07T20:03:38;14.00;99.90
13470;DHT22;6807;48.682;9.032;2023-05-07T20:06:06;14.00;99.90
13470;DHT22;6807;48.682;9.032;2023-05-07T20:08:33;14.00;99.90
13470;DHT22;6807;48.682;9.032;2023-05-07T20:11:00;14.00;99.90
13470;DHT22;6807;48.682;9.032;2023-05-07T20:13:28;14.00;99.90
13470;DHT22;6807;48.682;9.032;2023-05-07T20:16:01;14.10;99.90
13470;DHT22;6807;48.682;9.032;2023-05-07T20:18:29;14.00;99.90
13470;DHT22;6807;48.682;9.032;2023-05-07T20:20:57;14.00;99.90
13470;DHT22;6807;48.682;9.032;2023-05-07T20:23:25;14.00;99.90
13470;DHT22;6807;48.682;9.032;2023-05-07T20:25:52;14.00;99.90
13470;DHT22;6807;48.682;9.032;2023-05-07T20:28:19;14.00;99.90
13470;DHT22;6807;48.682;9.032;2023-05-07T20:30:47;14.00;99.90
13470;DHT22;6807;48.682;9.032;2023-05-07T20:33:14;14.00;99.90
13470;DHT22;6807;48.682;9.032;2023-05-07T20:35:41;14.00;99.90
13470;DHT22;6807;48.682;9.032;2023-05-07T20:38:10;14.00;99.90
13470;DHT22;6807;48.682;9.032;2023-05-07T20:40:39;14.10;99.90
13470;DHT22;6807;48.682;9.032;2023-05-07T20:43:06;14.10;99.90
13470;DHT22;6807;48.682;9.032;2023-05-07T20:45:34;14.10;99.90
13470;DHT22;6807;48.682;9.032;2023-05-07T20:48:01;14.10;99.90
13470;DHT22;6807;48.682;9.032;2023-05-07T20:50:28;14.00;99.90
13470;DHT22;6807;48.682;9.032;2023-05-07T20:52:55;14.10;99.90
13470;DHT22;6807;48.682;9.032;2023-05-07T20:55:24;14.00;99.90
13470;DHT22;6807;48.682;9.032;2023-05-07T20:57:51;14.00;99.90
13470;DHT22;6807;48.682;9.032;2023-05-07T21:00:18;14.00;99.90
13470;DHT22;6807;48.682;9.032;2023-05-07T21:02:45;14.00;99.90
13470;DHT22;6807;48.682;9.032;2023-05-07T21:05:13;14.00;99.90
13470;DHT22;6807;48.682;9.032;2023-05-07T21:07:40;14.00;99.90
13470;DHT22;6807;48.682;9.032;2023-05-07T21:10:08;14.00;99.90
13470;DHT22;6807;48.682;9.032;2023-05-07T21:12:36;14.00;99.90
13470;DHT22;6807;48.682;9.032;2023-05-07T21:15:05;14.00;99.90
13470;DHT22;6807;48.682;9.032;2023-05-07T21:17:32;14.00;1.00
13470;DHT22;6807;48.682;9.032;2023-05-07T21:19:59;14.00;99.90
13470;DHT22;6807;48.682;9.032;2023-05-07T21:22:29;14.00;1.00
13470;DHT22;6807;48.682;9.032;2023-05-07T21:24:56;14.00;99.90
13470;DHT22;6807;48.682;9.032;2023-05-07T21:27:23;14.00;99.90
13470;DHT22;6807;48.682;9.032;2023-05-07T21:29:51;13.90;99.90
13470;DHT22;6807;48.682;9.032;2023-05-07T21:32:19;13.90;99.90
13470;DHT22;6807;48.682;9.032;2023-05-07T21:34:46;13.90;99.90
13470;DHT22;6807;48.682;9.032;2023-05-07T21:37:13;13.90;99.90
13470;DHT22;6807;48.682;9.032;2023-05-07T21:39:40;13.90;99.90
13470;DHT22;6807;48.682;9.032;2023-05-07T21:42:07;13.90;1.00
13470;DHT22;6807;48.682;9.032;2023-05-07T21:44:34;13.90;1.00
13470;DHT22;6807;48.682;9.032;2023-05-07T21:47:03;13.90;1.00
13470;DHT22;6807;48.682;9.032;2023-05-07T21:49:30;13.90;1.00
13470;DHT22;6807;48.682;9.032;2023-05-07T21:51:57;13.90;1.00
13470;DHT22;6807;48.682;9.032;2023-05-07T21:54:24;13.90;99.90
13470;DHT22;6807;48.682;9.032;2023-05-07T21:56:51;13.90;1.00
13470;DHT22;6807;48.682;9.032;2023-05-07T21:59:18;13.90;99.90
13470;DHT22;6807;48.682;9.032;2023-05-07T22:01:45;13.90;99.90
13470;DHT22;6807;48.682;9.032;2023-05-07T22:04:14;13.90;1.00
13470;DHT22;6807;48.682;9.032;2023-05-07T22:06:41;13.80;99.90
13470;DHT22;6807;48.682;9.032;2023-05-07T22:09:08;13.90;99.90
13470;DHT22;6807;48.682;9.032;2023-05-07T22:11:35;13.90;1.00
13470;DHT22;6807;48.682;9.032;2023-05-07T22:14:03;13.90;1.00
13470;DHT22;6807;48.682;9.032;2023-05-07T22:16:30;13.90;1.00
13470;DHT22;6807;48.682;9.032;2023-05-07T22:18:57;13.90;99.90
13470;DHT22;6807;48.682;9.032;2023-05-07T22:21:25;13.90;1.00
13470;DHT22;6807;48.682;9.032;2023-05-07T22:23:52;13.90;1.00
13470;DHT22;6807;48.682;9.032;2023-05-07T22:26:19;13.90;1.00
13470;DHT22;6807;48.682;9.032;2023-05-07T22:28:47;13.80;99.90
13470;DHT22;6807;48.682;9.032;2023-05-07T22:31:14;13.80;1.00
13470;DHT22;6807;48.682;9.032;2023-05-07T22:33:41;13.80;1.00
13470;DHT22;6807;48.682;9.032;2023-05-07T22:36:08;13.80;99.90
13470;DHT22;6807;48.682;9.032;2023-05-07T22:38:37;13.80;99.90
13470;DHT22;6807;48.682;9.032;2023-05-07T22:41:04;13.80;99.90
13470;DHT22;6807;48.682;9.032;2023-05-07T22:43:31;13.80;99.90
13470;DHT22;6807;48.682;9.032;2023-05-07T22:45:59;13.80;1.00
13470;DHT22;6807;48.682;9.032;2023-05-07T22:48:26;13.80;99.90
13470;DHT22;6807;48.682;9.032;2023-05-07T22:50:53;13.80;99.90
13470;DHT22;6807;48.682;9.032;2023-05-07T22:53:21;13.80;99.90
13470;DHT22;6807;48.682;9.032;2023-05-07T22:55:49;13.80;1.00
13470;DHT22;6807;48.682;9.032;2023-05-07T22:58:17;13.70;99.90
13470;DHT22;6807;48.682;9.032;2023-05-07T23:00:44;13.80;99.90
13470;DHT22;6807;48.682;9.032;2023-05-07T23:03:11;13.80;99.90
13470;DHT22;6807;48.682;9.032;2023-05-07T23:05:38;13.80;99.90
13470;DHT22;6807;48.682;9.032;2023-05-07T23:08:06;13.80;1.00
13470;DHT22;6807;48.682;9.032;2023-05-07T23:10:33;13.80;1.00
13470;DHT22;6807;48.682;9.032;2023-05-07T23:13:01;13.70;1.00
13470;DHT22;6807;48.682;9.032;2023-05-07T23:15:28;13.70;99.90
13470;DHT22;6807;48.682;9.032;2023-05-07T23:17:58;13.70;99.90
13470;DHT22;6807;48.682;9.032;2023-05-07T23:20:25;13.70;99.90
13470;DHT22;6807;48.682;9.032;2023-05-07T23:22:52;13.60;99.90
13470;DHT22;6807;48.682;9.032;2023-05-07T23:25:19;13.60;99.90
13470;DHT22;6807;48.682;9.032;2023-05-07T23:27:46;13.70;1.00
13470;DHT22;6807;48.682;9.032;2023-05-07T23:30:15;13.70;1.00
13470;DHT22;6807;48.682;9.032;2023-05-07T23:32:42;13.70;99.90
13470;DHT22;6807;48.682;9.032;2023-05-07T23:35:10;13.70;1.00
13470;DHT22;6807;48.682;9.032;2023-05-07T23:37:37;13.70;99.90
13470;DHT22;6807;48.682;9.032;2023-05-07T23:40:05;13.60;99.90
13470;DHT22;6807;48.682;9.032;2023-05-07T23:42:32;13.60;99.90